Terminal Aerodrome Forecast
Issued by NWS

Home | Current Version | Previous Version | Text Only | Print | Product List | Glossary On
Versions: 1 2 3 4 5 6 7 8 9 10 11 12 13 14 15 16 17 18 19 20 21
000
FTAK31 PAFA 241725
TAFAQT
TAF
PAQT 241725Z 2418/2518 06005KT 1/2SM FG VV003
      TEMPO 2418/2419 1SM BR OVC002
     FM242100 04010KT 6SM BR BKN006 OVC015
     FM251200 30005KT 4SM -RASN BKN003 OVC007
     FM251500 30006KT 4SM -SN BR OVC007=

USA.gov is the U.S. government's official web portal to all federal, state and local government web resources and services.